Flight Number: AVA1576 Duration: 1:15
Departure: Pyongyang (ZKPY) at 04:15 Distance: 423.391 Nm
Arrival: Beijing Capital Intl Airport (ZBAA) at 05:30 Equipment: MD-81

Weather Information

Sunrise: 20:36 Sunset: 10:50 (UTC)

Beijing, China (ZBAA) 39-56N 116-17E 55M Jul 27, 2021 - 04:30 PM EDT / 2021.07.27 2030 UTC
Wind: Variable at 2 MPH (2 KT):0
Visibility: greater than 7 mile(s):0
Sky conditions: partly cloudy Temperature: 75 F (24 C) Dew Point: 75 F (24 C) Relative Humidity: 100% Pressure (altimeter): 29.65 in. Hg (1004 hPa)
ob: ZBAA 272030Z VRB01MPS 9999 SCT040 24/24 Q1004 NOSIG cycle: 20
Sunrise: 21:11 Sunset: 11:29 (UTC)

TAF:2021/07/27 18:03 TAF TAF ZBAA 271504Z 2718/2818 15004MPS 6000 NSC TX28/2807Z TN23/2721Z TEMPO 2719/2801 2800 -SHRA BR FEW040CB TEMPO 2807/2811 -TSRA FEW040CB

This route has never been flown.

Route map